Tennyson, IN (47637)

5:39 AM CST on December 10, 2016 (GMT -0600)
131 W. Main St., Boonville, IN 47601 | | Change Station

Elev 0 ft 38.05 °N, 87.27 °W | Updated 1 second ago

Overcast
Overcast
20.0 °F
Feels Like 20 °F
N
0.0
Wind Variable Wind from West
Gusts 0.0 mph

Today
High -- | Low -- °F
--% Chance of Precip.
Yesterday
High -- | Low -- °F
Precip. -- in
Pressure 30.44 in
Visibility 9.0 miles
Clouds Overcast 9500 ft
Windchill 20 °F
Dew Point 18 °F
Humidity 92%
Rainfall 0.00 in
Snow Depth Not available.
6:54 AM 4:28 PM
Waxing Gibbous, 83% visible
METAR KHNB 101135Z 00000KT 9SM OVC095 M08/M10 A3060 RMK AO2 SLP307 PWINO FZRANO RVRNO
Pressure 30.44 in
Visibility 9.0 miles
Clouds Overcast 9500 ft
Windchill 20 °F
Dew Point 18 °F
Humidity 92%
Rainfall 0.00 in
Snow Depth Not available.
6:54 AM 4:28 PM
Waxing Gibbous, 83% visible
METAR KHNB 101135Z 00000KT 9SM OVC095 M08/M10 A3060 RMK AO2 SLP307 PWINO FZRANO RVRNO

10-Day Weather Forecast

Almanac

Astronomy

Dec. 10, 2016 Rise Set
Actual Time
Civil Twilight
Nautical Twilight
Astronomical Twilight
Moon
Length of Visible Light
Length of Day
Tomorrow will be .
, % of the Moon is Illuminated

Today's Extremes

State Highs State Lows

Community

WunderPhotos

Upload Photos

1,956,536 photos uploaded!

WunderBlog® & News

Nearby

Air Quality

  Air Quality AQ Index Pollutant
Not available.

Snow Depth

Station Depth Elevation

Earthquake Activity

City Distance Mag. Time & Date
Minimum magnitude displayed is 2.5.

Coastal Water Temperatures

Place Temperature

Stations

Nearby Weather Stations

Station Location Temp. Windchill Dew Point Humidity Wind Precip. Elev Updated Type
                   

Watches & Warnings

There are currently no watches in effect.